Pierceville, Kansas
Current Conditions -  °F | °C
As of 11:54 PM on Wednesday 26 Nov 2014 (Local Time) from KGCK Reporting Station
Clear Clear  
Wind Chill: 21°   Ceiling: Unl
Heat Index: 21°   Visibility: 10mi
Dew Point: 15°   Wind: 3mph
Humidity: 78%   Direction: 170°S
Pressure: 30.4"   Gusts: NA
Location:  37.88°N, 100.68°W
Report Text: KGCK 270554Z AUTO 17003KT 10SM CLR M06/M09 A3040 RMK AO2 SLP317 T10611094 10011 21061 400721061 53011
Loading
Personal Weather Stations






























Interactive Weather Map New forecast layout! Learn more

10-Day Weather Forecast

Advertisements
Track Severe Weather on mobile